Time;durP1;ratioP1;P1;durP2;ratioP2;P2;SDS_P1;SDS_P2;PMS_P1;PMS_P2;Temp;Humidity;BMP_temperature;BMP_pressure;BME280_temperature;BME280_humidity;BME280_pressure;Samples;Min_cycle;Max_cycle;Signal;HPM_P1;HPM_P2
2022/06/13 00:02:27;;;;;;;9.30;2.70;;;16.70;99.90;;;;;;12184807;29;20095;-84
2022/06/13 00:08:29;;;;;;;8.20;2.65;;;16.70;99.90;;;;;;12213966;29;20055;-85
2022/06/13 00:14:31;;;;;;;7.75;2.20;;;16.60;99.90;;;;;;12197637;29;20052;-85
2022/06/13 00:20:32;;;;;;;11.52;2.55;;;16.50;99.90;;;;;;12177721;29;20055;-85
2022/06/13 00:26:36;;;;;;;8.13;2.53;;;16.40;99.90;;;;;;12216714;29;20536;-84
2022/06/13 00:32:38;;;;;;;12.40;2.80;;;16.30;99.90;;;;;;12176698;29;20060;-85
2022/06/13 00:38:40;;;;;;;7.57;2.33;;;16.10;99.90;;;;;;12189087;29;20080;-84
2022/06/13 00:44:42;;;;;;;9.05;2.60;;;15.90;99.90;;;;;;12198926;29;20512;-85
2022/06/13 00:50:51;;;;;;;5.93;2.40;;;16.00;99.90;;;;;;12180094;29;20568;-85
2022/06/13 00:56:53;;;;;;;7.53;2.67;;;15.90;99.90;;;;;;12200120;29;20099;-85
2022/06/13 01:02:55;;;;;;;9.05;2.90;;;15.90;99.90;;;;;;12200529;29;20087;-84
2022/06/13 01:08:57;;;;;;;5.05;2.50;;;15.80;99.90;;;;;;12203234;29;20078;-85
2022/06/13 01:15:35;;;;;;;8.48;2.53;;;15.60;99.90;;;;;;12196162;29;20095;-85
2022/06/13 01:22:20;;;;;;;6.78;2.55;;;15.40;99.90;;;;;;12196208;29;20057;-84
2022/06/13 01:28:49;;;;;;;9.13;3.47;;;15.40;99.90;;;;;;12200848;29;20142;-84
2022/06/13 01:35:17;;;;;;;10.15;2.63;;;15.30;99.90;;;;;;12179957;29;20568;-84
2022/06/13 01:41:31;;;;;;;8.90;3.58;;;15.30;99.90;;;;;;12201062;29;20098;-85
2022/06/13 01:47:56;;;;;;;5.78;2.42;;;15.20;99.90;;;;;;12205272;29;20107;-85
2022/06/13 01:54:18;;;;;;;14.32;3.20;;;15.40;99.90;;;;;;12191218;29;20048;-84
2022/06/13 02:00:26;;;;;;;6.97;3.05;;;15.30;99.90;;;;;;12187312;29;20052;-85
2022/06/13 02:06:32;;;;;;;6.50;3.00;;;15.20;99.90;;;;;;12180233;29;20553;-85
2022/06/13 02:12:35;;;;;;;11.93;3.38;;;15.10;99.90;;;;;;12183601;29;20044;-86
2022/06/13 02:18:50;;;;;;;10.23;3.00;;;15.00;99.90;;;;;;12188574;29;20047;-84
2022/06/13 02:24:58;;;;;;;10.65;3.33;;;14.90;99.90;;;;;;12190238;29;20188;-85
2022/06/13 02:31:07;;;;;;;10.85;2.97;;;14.90;99.90;;;;;;12193813;29;20091;-85
2022/06/13 02:37:15;;;;;;;9.80;3.30;;;14.70;99.90;;;;;;12191801;29;20488;-85
2022/06/13 02:43:32;;;;;;;6.53;2.80;;;14.50;99.90;;;;;;12235401;29;20462;-84
2022/06/13 02:49:40;;;;;;;10.57;3.30;;;14.20;99.90;;;;;;12197373;29;20122;-84
2022/06/13 02:55:46;;;;;;;9.20;3.40;;;14.40;99.90;;;;;;12193607;29;20048;-85
2022/06/13 03:01:52;;;;;;;10.25;3.58;;;14.40;99.90;;;;;;12198982;29;20052;-84
2022/06/13 03:08:19;;;;;;;7.70;2.78;;;14.50;99.90;;;;;;12197013;29;20084;-85
2022/06/13 03:15:02;;;;;;;11.88;3.20;;;14.60;99.90;;;;;;12178873;29;20056;-85
2022/06/13 03:21:19;;;;;;;8.93;3.63;;;14.50;99.90;;;;;;12186760;29;20488;-84
2022/06/13 03:27:37;;;;;;;11.73;3.78;;;14.40;99.90;;;;;;12195782;29;20343;-85
2022/06/13 03:33:44;;;;;;;9.93;3.38;;;14.30;99.90;;;;;;12200475;29;20048;-85
2022/06/13 03:40:04;;;;;;;9.52;3.33;;;14.50;99.90;;;;;;12185922;29;20134;-85
2022/06/13 03:46:15;;;;;;;8.40;3.22;;;14.60;99.90;;;;;;12173930;29;20151;-84
2022/06/13 03:52:17;;;;;;;8.65;3.60;;;14.50;99.90;;;;;;12191215;29;20052;-84
2022/06/13 03:58:30;;;;;;;8.45;2.83;;;14.50;99.90;;;;;;12198077;29;20501;-84
2022/06/13 04:04:58;;;;;;;8.93;3.20;;;14.60;99.90;;;;;;12199611;29;20044;-85
2022/06/13 04:11:13;;;;;;;13.98;3.55;;;14.60;99.90;;;;;;12173527;29;20185;-84
2022/06/13 04:17:34;;;;;;;;;;;14.60;99.90;;;;;;12254024;29;20544;-85
2022/06/13 04:24:12;;;;;;;9.50;3.95;;;14.50;99.90;;;;;;12189023;29;19927;-86
2022/06/13 04:30:18;;;;;;;12.57;3.55;;;14.60;99.90;;;;;;12205935;29;20496;-86
2022/06/13 04:36:22;;;;;;;13.82;3.85;;;14.20;99.90;;;;;;12170477;29;20108;-85
2022/06/13 04:42:26;;;;;;;11.98;3.75;;;14.20;99.90;;;;;;12193597;29;20135;-86
2022/06/13 04:48:29;;;;;;;8.75;3.42;;;14.10;99.90;;;;;;12198869;29;20052;-86
2022/06/13 04:54:46;;;;;;;9.70;3.40;;;14.40;99.90;;;;;;12193223;29;20056;-86
2022/06/13 05:00:53;;;;;;;11.23;2.78;;;14.40;99.90;;;;;;12178310;29;20076;-87
2022/06/13 05:07:19;;;;;;;8.75;2.72;;;14.30;99.90;;;;;;12200437;29;20056;-86
2022/06/13 05:13:23;;;;;;;11.60;3.33;;;14.30;99.90;;;;;;12184067;29;20134;-86
2022/06/13 05:19:31;;;;;;;7.70;2.63;;;14.20;99.90;;;;;;12185292;29;20107;-86
2022/06/13 05:25:53;;;;;;;9.45;2.85;;;14.30;99.90;;;;;;12165274;29;20145;-86
2022/06/13 05:31:55;;;;;;;8.52;2.80;;;14.40;99.90;;;;;;12191648;29;20123;-86
2022/06/13 05:38:01;;;;;;;7.63;2.67;;;14.40;99.90;;;;;;12182752;29;20056;-85
2022/06/13 05:44:05;;;;;;;7.38;2.60;;;14.40;99.90;;;;;;12179829;29;20040;-85
2022/06/13 05:50:14;;;;;;;7.90;2.80;;;14.40;99.90;;;;;;12194677;29;20100;-85
2022/06/13 05:56:16;;;;;;;8.77;3.42;;;14.60;99.90;;;;;;12191225;29;20520;-84
2022/06/13 06:02:18;;;;;;;10.50;3.45;;;14.50;99.90;;;;;;12175229;29;20049;-84
2022/06/13 06:08:28;;;;;;;8.68;3.55;;;14.70;99.90;;;;;;12197364;29;20059;-85
2022/06/13 06:14:30;;;;;;;7.45;2.85;;;14.70;99.90;;;;;;12196649;29;20472;-85
2022/06/13 06:20:32;;;;;;;9.63;2.80;;;14.70;99.90;;;;;;12195872;29;20062;-86
2022/06/13 06:26:34;;;;;;;10.07;2.80;;;14.60;99.90;;;;;;12185399;29;20067;-86
2022/06/13 06:32:36;;;;;;;6.15;2.60;;;14.50;99.90;;;;;;12189192;29;20055;-85
2022/06/13 06:38:38;;;;;;;7.75;2.45;;;14.40;99.90;;;;;;12178197;29;20143;-85
2022/06/13 06:44:40;;;;;;;7.20;2.00;;;14.60;99.90;;;;;;12198669;29;20089;-85
2022/06/13 06:50:44;;;;;;;6.75;2.35;;;14.70;99.90;;;;;;12178557;29;20084;-85
2022/06/13 07:03:06;;;;;;;4.88;1.75;;;14.80;99.90;;;;;;12193357;29;20083;-85
2022/06/13 07:09:07;;;;;;;8.82;2.10;;;14.90;99.90;;;;;;12191710;29;20063;-84
2022/06/13 07:15:12;;;;;;;8.20;1.85;;;15.00;99.90;;;;;;12203218;29;20122;-84
2022/06/13 07:21:14;;;;;;;8.82;2.15;;;14.90;99.90;;;;;;12189632;29;20060;-85
2022/06/13 07:27:16;;;;;;;7.82;2.05;;;15.20;99.90;;;;;;12185185;29;20103;-84
2022/06/13 07:33:18;;;;;;;7.63;2.20;;;15.20;99.90;;;;;;12183628;29;20052;-84
2022/06/13 07:39:20;;;;;;;9.43;2.70;;;15.20;99.90;;;;;;12189162;29;20056;-84
2022/06/13 07:45:25;;;;;;;8.52;2.80;;;15.20;99.90;;;;;;12179994;29;20103;-84
2022/06/13 07:51:46;;;;;;;;;;;15.30;99.90;;;;;;12204637;29;20055;-84
2022/06/13 07:57:49;;;;;;;8.65;2.70;;;15.40;99.90;;;;;;12206445;29;19983;-84
2022/06/13 08:03:52;;;;;;;11.07;3.22;;;15.50;99.90;;;;;;12183536;29;20049;-84
2022/06/13 08:09:54;;;;;;;8.40;2.45;;;15.60;99.90;;;;;;12179187;29;20056;-84
2022/06/13 08:15:59;;;;;;;8.05;2.38;;;15.80;99.90;;;;;;12203489;29;20090;-86
2022/06/13 08:22:01;;;;;;;8.32;2.22;;;16.00;99.90;;;;;;12202102;29;20071;-85
2022/06/13 08:28:04;;;;;;;11.25;2.60;;;16.10;99.90;;;;;;12183562;29;20585;-84
2022/06/13 08:34:07;;;;;;;10.55;2.63;;;16.30;99.90;;;;;;12194645;29;20498;-83
2022/06/13 08:40:10;;;;;;;6.22;2.17;;;16.40;99.90;;;;;;12186383;29;20614;-85
2022/06/13 08:46:30;;;;;;;8.23;2.15;;;16.30;99.90;;;;;;12192511;29;20115;-84
2022/06/13 08:52:38;;;;;;;12.98;2.20;;;16.20;99.90;;;;;;12174112;29;20045;-82
2022/06/13 08:59:22;;;;;;;9.07;2.30;;;15.90;99.90;;;;;;12174968;29;20512;-84
2022/06/13 09:05:34;;;;;;;7.15;2.15;;;15.80;99.90;;;;;;12179692;29;20056;-86
2022/06/13 09:11:46;;;;;;;9.80;2.40;;;15.80;99.90;;;;;;12183281;29;20099;-84
2022/06/13 09:18:22;;;;;;;9.88;2.22;;;15.90;99.90;;;;;;12193195;29;20129;-86
2022/06/13 09:24:34;;;;;;;6.38;2.20;;;16.30;99.90;;;;;;12150597;29;20103;-84
2022/06/13 09:30:42;;;;;;;5.63;1.98;;;16.60;99.90;;;;;;12192990;29;20102;-84
2022/06/13 09:37:02;;;;;;;5.93;1.90;;;16.50;99.90;;;;;;12192243;29;20080;-82
2022/06/13 09:43:15;;;;;;;3.65;1.42;;;15.30;99.90;;;;;;12180787;29;20059;-85
2022/06/13 09:49:51;;;;;;;5.10;1.40;;;13.80;99.90;;;;;;12374935;23;20142;-36
2022/06/13 09:56:12;;;;;;;3.20;1.30;;;13.20;99.90;;;;;;12225767;29;20095;-39
2022/06/13 10:02:28;;;;;;;9.73;1.50;;;12.90;99.90;;;;;;12247666;29;20048;-36
2022/06/13 10:09:05;;;;;;;4.25;1.80;;;13.10;99.90;;;;;;12237686;29;20979;-36
2022/06/13 10:15:27;;;;;;;5.07;1.67;;;13.10;99.90;;;;;;12238772;29;20055;-34
2022/06/13 10:21:37;;;;;;;7.50;2.25;;;13.80;99.90;;;;;;12245192;29;20063;-37
2022/06/13 10:27:51;;;;;;;4.65;1.40;;;14.40;99.90;;;;;;12244252;29;20492;-36
2022/06/13 10:34:21;;;;;;;3.08;0.93;;;13.70;99.90;;;;;;12241547;29;20047;-37
2022/06/13 10:40:25;;;;;;;3.35;1.00;;;13.10;99.90;;;;;;12245257;29;20523;-34
2022/06/13 10:46:27;;;;;;;0.95;0.68;;;12.70;99.90;;;;;;12253461;29;20055;-34
2022/06/13 10:52:35;;;;;;;2.72;0.90;;;12.60;99.90;;;;;;12219197;29;20129;-37
2022/06/13 10:58:44;;;;;;;2.33;0.90;;;12.60;99.90;;;;;;12193056;29;20059;-39
2022/06/13 11:05:22;;;;;;;3.40;1.00;;;12.80;99.90;;;;;;12200833;29;20048;-40
2022/06/13 11:11:38;;;;;;;5.15;0.95;;;13.00;99.90;;;;;;12212456;29;20043;-38
2022/06/13 11:24:22;;;;;;;2.63;1.08;;;13.50;99.90;;;;;;12204317;29;20069;-37
2022/06/13 11:30:30;;;;;;;3.90;0.73;;;13.80;99.90;;;;;;12209218;29;20070;-34
2022/06/13 11:36:34;;;;;;;2.75;0.95;;;14.00;99.90;;;;;;12208454;29;20111;-34
2022/06/13 11:42:37;;;;;;;2.80;0.82;;;14.90;99.90;;;;;;12224941;29;20211;-34
2022/06/13 11:48:48;;;;;;;3.60;0.85;;;15.50;99.90;;;;;;12190362;29;20114;-38
2022/06/13 11:54:55;;;;;;;2.65;0.77;;;15.50;99.90;;;;;;12203845;29;20051;-37
2022/06/13 12:01:21;;;;;;;4.53;1.00;;;15.80;99.90;;;;;;12209971;29;20103;-34
2022/06/13 12:07:28;;;;;;;3.60;0.80;;;16.00;99.90;;;;;;12207950;29;20107;-34
2022/06/13 12:13:33;;;;;;;2.35;0.60;;;15.40;99.90;;;;;;12213048;29;20146;-37
2022/06/13 12:19:51;;;;;;;2.22;0.60;;;15.00;99.90;;;;;;12204824;29;20087;-34
2022/06/13 12:26:24;;;;;;;2.38;0.68;;;14.70;99.90;;;;;;12201327;29;20519;-37
2022/06/13 12:32:48;;;;;;;2.80;0.50;;;14.40;99.90;;;;;;12212139;29;20052;-35
2022/06/13 12:39:15;;;;;;;1.50;0.40;;;14.50;99.90;;;;;;12218074;29;20086;-39
2022/06/13 12:45:35;;;;;;;1.10;0.50;;;14.40;99.90;;;;;;12210302;29;20071;-38
2022/06/13 12:51:47;;;;;;;4.20;0.70;;;14.40;99.90;;;;;;12204195;29;20048;-38
2022/06/13 12:58:26;;;;;;;1.98;0.50;;;14.60;99.90;;;;;;12211574;29;20051;-34
2022/06/13 13:04:49;;;;;;;2.28;0.60;;;14.90;99.90;;;;;;12208367;29;20055;-39
2022/06/13 13:10:51;;;;;;;4.13;0.53;;;15.00;99.90;;;;;;12200557;29;20188;-38
2022/06/13 13:17:15;;;;;;;1.92;0.60;;;15.70;99.90;;;;;;12193324;29;20053;-38
2022/06/13 13:23:49;;;;;;;3.87;0.60;;;16.10;99.90;;;;;;12206314;29;20052;-38
2022/06/13 13:30:25;;;;;;;2.87;0.67;;;15.90;99.90;;;;;;12211835;29;20311;-34
2022/06/13 13:36:38;;;;;;;4.32;0.50;;;15.70;99.90;;;;;;12192219;29;20048;-37
2022/06/13 13:42:47;;;;;;;2.80;0.60;;;15.60;99.90;;;;;;12210461;29;20484;-34
2022/06/13 13:48:52;;;;;;;2.72;0.60;;;15.60;99.90;;;;;;12208641;29;20397;-34
2022/06/13 13:55:03;;;;;;;3.42;0.60;;;15.70;99.90;;;;;;12211138;29;20048;-34
2022/06/13 14:01:22;;;;;;;2.72;0.85;;;15.70;99.90;;;;;;12204705;29;20064;-34
2022/06/13 14:07:41;;;;;;;3.55;0.70;;;15.90;99.90;;;;;;12205838;29;20448;-34
2022/06/13 14:13:47;;;;;;;3.88;1.10;;;16.30;99.90;;;;;;12205918;29;20064;-34
2022/06/13 14:20:05;;;;;;;2.65;0.70;;;16.60;99.90;;;;;;12202333;29;20091;-38
2022/06/13 14:26:19;;;;;;;5.75;0.90;;;16.70;99.90;;;;;;12210139;29;20100;-37
2022/06/13 14:32:26;;;;;;;4.93;1.00;;;16.60;99.90;;;;;;12173291;29;20511;-34
2022/06/13 14:38:48;;;;;;;5.45;0.98;;;16.40;99.90;;;;;;12202634;29;20106;-38
2022/06/13 14:45:08;;;;;;;2.38;0.88;;;16.30;99.90;;;;;;12196405;29;20047;-34
2022/06/13 14:51:14;;;;;;;2.42;0.90;;;16.70;99.90;;;;;;12205268;29;20056;-38
2022/06/13 14:57:28;;;;;;;3.97;1.20;;;17.30;99.90;;;;;;12204016;29;20048;-34
2022/06/13 15:03:29;;;;;;;4.93;1.08;;;17.40;99.90;;;;;;12185224;29;20088;-38
2022/06/13 15:10:04;;;;;;;6.07;1.02;;;17.40;99.90;;;;;;12211593;29;20052;-39
2022/06/13 15:16:08;;;;;;;3.97;0.60;;;17.80;99.90;;;;;;12191501;29;20064;-37
2022/06/13 15:22:19;;;;;;;4.57;0.82;;;17.70;99.90;;;;;;12209862;29;20048;-38
2022/06/13 15:28:23;;;;;;;4.22;0.80;;;17.20;99.90;;;;;;12202146;29;20139;-37
2022/06/13 15:34:31;;;;;;;3.53;0.70;;;17.20;99.90;;;;;;12198667;29;20075;-39
2022/06/13 15:40:33;;;;;;;5.20;0.80;;;17.50;99.90;;;;;;12210879;29;20459;-38
2022/06/13 15:46:59;;;;;;;3.00;0.82;;;17.80;99.90;;;;;;12216496;29;20448;-35
2022/06/13 15:53:03;;;;;;;6.10;1.00;;;17.70;99.90;;;;;;12214167;29;20134;-39
2022/06/13 15:59:08;;;;;;;5.75;0.80;;;17.70;99.90;;;;;;12208703;29;20083;-34
2022/06/13 16:05:20;;;;;;;3.13;0.82;;;17.20;99.90;;;;;;12209442;29;20048;-34
2022/06/13 16:11:28;;;;;;;4.15;1.20;;;16.90;99.90;;;;;;12207855;29;20056;-38
2022/06/13 16:17:53;;;;;;;4.63;0.73;;;16.70;99.90;;;;;;12217146;29;20484;-35
2022/06/13 16:23:58;;;;;;;5.38;1.40;;;16.60;99.90;;;;;;12208228;29;20062;-39
2022/06/13 16:30:03;;;;;;;2.75;0.80;;;16.70;99.90;;;;;;12206051;29;20285;-38
2022/06/13 16:36:15;;;;;;;6.68;1.38;;;17.00;99.90;;;;;;12188293;29;20075;-36
2022/06/13 16:42:19;;;;;;;5.18;1.23;;;17.30;99.90;;;;;;12203762;29;20425;-34
2022/06/13 16:48:20;;;;;;;7.07;1.03;;;17.40;99.90;;;;;;12206388;29;20139;-34
2022/06/13 16:54:32;;;;;;;4.50;0.90;;;17.40;99.90;;;;;;12209026;29;20472;-38
2022/06/13 17:00:39;;;;;;;5.95;0.82;;;17.60;99.90;;;;;;12204611;29;20147;-40
2022/06/13 17:06:50;;;;;;;6.35;1.23;;;17.70;99.90;;;;;;12190189;29;20143;-36
2022/06/13 17:12:52;;;;;;;4.10;1.02;;;17.70;99.90;;;;;;12199406;29;20055;-35
2022/06/13 17:18:59;;;;;;;7.45;1.35;;;17.70;99.90;;;;;;12204369;29;20049;-35
2022/06/13 17:25:02;;;;;;;5.72;1.05;;;17.60;99.90;;;;;;12212930;29;20776;-35
2022/06/13 17:37:25;;;;;;;5.25;1.05;;;17.00;99.90;;;;;;12207943;29;20056;-34
2022/06/13 17:43:28;;;;;;;9.52;1.70;;;16.90;99.90;;;;;;12221327;29;20062;-38
2022/06/13 17:49:30;;;;;;;5.55;1.20;;;16.80;99.90;;;;;;12202852;29;20059;-35
2022/06/13 17:55:36;;;;;;;9.10;1.30;;;16.80;99.90;;;;;;12216000;29;20453;-35
2022/06/13 18:01:39;;;;;;;9.23;1.33;;;17.00;99.90;;;;;;12204191;29;20083;-39
2022/06/13 18:07:45;;;;;;;3.53;1.20;;;17.20;99.90;;;;;;12216737;29;20051;-38
2022/06/13 18:13:47;;;;;;;8.32;1.08;;;17.30;99.90;;;;;;12202017;29;20139;-38
2022/06/13 18:19:51;;;;;;;4.93;1.10;;;17.20;99.90;;;;;;12197850;29;20051;-39
2022/06/13 18:25:54;;;;;;;5.53;1.10;;;16.90;99.90;;;;;;12201529;29;20139;-35
2022/06/13 18:31:56;;;;;;;3.70;1.50;;;16.70;99.90;;;;;;12203894;29;20966;-37
2022/06/13 18:37:58;;;;;;;4.55;0.90;;;16.60;99.90;;;;;;12198419;29;20420;-38
2022/06/13 18:44:02;;;;;;;9.38;1.65;;;16.30;99.90;;;;;;12209978;29;20051;-35
2022/06/13 18:50:05;;;;;;;5.05;1.00;;;16.40;99.90;;;;;;12202296;29;20530;-37
2022/06/13 18:56:08;;;;;;;5.05;1.20;;;16.40;99.90;;;;;;12153935;29;20092;-37
2022/06/13 19:02:12;;;;;;;4.43;0.85;;;16.20;99.90;;;;;;12154586;29;20056;-34
2022/06/13 19:08:15;;;;;;;;;;;16.10;99.90;;;;;;12167863;29;20083;-39
2022/06/13 19:14:20;;;;;;;10.70;1.30;;;16.00;99.90;;;;;;12149518;29;19931;-34
2022/06/13 19:20:26;;;;;;;4.63;1.00;;;15.90;99.90;;;;;;12168093;29;20056;-37
2022/06/13 19:26:29;;;;;;;5.03;0.90;;;15.80;99.90;;;;;;12140268;29;20148;-34
2022/06/13 19:32:36;;;;;;;5.93;1.20;;;15.80;99.90;;;;;;12156269;29;20111;-35
2022/06/13 19:38:39;;;;;;;6.10;0.90;;;15.70;99.90;;;;;;12161175;29;20056;-38
2022/06/13 19:44:43;;;;;;;4.95;1.10;;;15.70;99.90;;;;;;12160969;29;20048;-37
2022/06/13 19:50:45;;;;;;;7.35;1.25;;;15.50;99.90;;;;;;12184935;29;20199;-35
2022/06/13 19:56:49;;;;;;;6.15;1.23;;;15.50;99.90;;;;;;12211245;29;20079;-34
2022/06/13 20:02:51;;;;;;;6.20;1.43;;;15.60;99.90;;;;;;12217177;29;20047;-34
2022/06/13 20:08:53;;;;;;;8.25;1.20;;;15.50;99.90;;;;;;12218763;29;20291;-35
2022/06/13 20:14:56;;;;;;;7.13;1.33;;;15.40;99.90;;;;;;12207803;29;20135;-38
2022/06/13 20:20:59;;;;;;;7.83;1.30;;;15.30;99.90;;;;;;12189266;29;20490;-34
2022/06/13 20:27:01;;;;;;;6.55;0.98;;;15.30;99.90;;;;;;12192122;29;20044;-38
2022/06/13 20:33:05;;;;;;;7.35;1.23;;;15.20;99.90;;;;;;12207718;29;20103;-38
2022/06/13 20:39:11;;;;;;;4.97;1.08;;;15.00;99.90;;;;;;12215424;29;20055;-37
2022/06/13 20:45:16;;;;;;;4.10;1.10;;;15.00;99.90;;;;;;12214118;29;20561;-34
2022/06/13 20:51:18;;;;;;;7.45;1.35;;;15.10;99.90;;;;;;12201136;29;20052;-35
2022/06/13 20:57:20;;;;;;;3.83;0.93;;;15.00;99.90;;;;;;12212943;29;20110;-37
2022/06/13 21:03:23;;;;;;;4.85;1.10;;;14.90;99.90;;;;;;12204551;29;20044;-38
2022/06/13 21:15:51;;;;;;;3.03;0.88;;;14.60;99.90;;;;;;12203384;29;20048;-34
2022/06/13 21:21:54;;;;;;;4.50;0.90;;;14.50;99.90;;;;;;12200095;29;20124;-34
2022/06/13 21:27:59;;;;;;;6.35;1.10;;;14.30;99.90;;;;;;12210953;29;20060;-37
2022/06/13 21:34:00;;;;;;;;;;;14.20;99.90;;;;;;12211902;29;20052;-34
2022/06/13 21:40:03;;;;;;;7.20;1.05;;;14.00;99.90;;;;;;12204246;29;19965;-38
2022/06/13 21:46:08;;;;;;;5.05;1.40;;;13.90;99.90;;;;;;12206642;29;20523;-34
2022/06/13 21:52:10;;;;;;;3.35;0.93;;;13.80;99.90;;;;;;12208353;29;20055;-37
2022/06/13 21:58:12;;;;;;;4.57;1.15;;;13.60;99.90;;;;;;12206147;29;20059;-34
2022/06/13 22:04:14;;;;;;;5.13;1.05;;;13.60;99.90;;;;;;12191188;29;20078;-34
2022/06/13 22:10:17;;;;;;;4.63;1.02;;;13.50;99.90;;;;;;12199955;29;20131;-39
2022/06/13 22:16:19;;;;;;;3.22;1.10;;;13.50;99.90;;;;;;12203164;29;20064;-34
2022/06/13 22:22:21;;;;;;;7.55;1.20;;;13.30;99.90;;;;;;12201282;29;20279;-34
2022/06/13 22:28:25;;;;;;;4.45;1.20;;;13.30;99.90;;;;;;12193985;29;20056;-34
2022/06/13 22:34:27;;;;;;;4.65;1.08;;;13.10;99.90;;;;;;12200088;29;20056;-37
2022/06/13 22:40:34;;;;;;;4.97;1.20;;;13.10;99.90;;;;;;12206381;29;20087;-38
2022/06/13 22:52:57;;;;;;;3.33;0.98;;;13.00;99.90;;;;;;12209825;29;20053;-34
2022/06/13 22:58:59;;;;;;;5.53;1.30;;;12.90;99.90;;;;;;12200859;29;20492;-37
2022/06/13 23:05:01;;;;;;;7.13;1.00;;;12.90;99.90;;;;;;12224764;29;20405;-38
2022/06/13 23:11:04;;;;;;;4.47;1.25;;;12.80;99.90;;;;;;12212955;29;20059;-37
2022/06/13 23:17:07;;;;;;;5.20;1.20;;;12.60;99.90;;;;;;12207762;29;20062;-38
2022/06/13 23:23:11;;;;;;;7.10;1.30;;;12.60;99.90;;;;;;12217524;29;20063;-34
2022/06/13 23:29:13;;;;;;;3.30;1.20;;;12.60;99.90;;;;;;12202061;29;20503;-37
2022/06/13 23:35:16;;;;;;;6.57;1.05;;;12.50;99.90;;;;;;12207699;29;20056;-34
2022/06/13 23:41:18;;;;;;;4.75;1.23;;;12.60;99.90;;;;;;12212278;29;20495;-37
2022/06/13 23:47:20;;;;;;;2.65;0.90;;;12.70;99.90;;;;;;12208076;29;20543;-38
2022/06/13 23:53:22;;;;;;;4.57;1.20;;;12.50;99.90;;;;;;12200728;29;20052;-37
2022/06/13 23:59:26;;;;;;;5.57;1.10;;;12.50;99.90;;;;;;12205126;29;20115;-38
